Time;durP1;ratioP1;P1;durP2;ratioP2;P2;SDS_P1;SDS_P2;PMS_P1;PMS_P2;Temp;Humidity;BMP_temperature;BMP_pressure;BME280_temperature;BME280_humidity;BME280_pressure;Samples;Min_cycle;Max_cycle;Signal;HPM_P1;HPM_P2
2021/05/02 00:02:15;;;;;;;;;;;;;;;;;;4434166;32;20311;-84
2021/05/02 00:04:46;;;;;;;;;;;;;;;;;;4423739;32;20017;-83
2021/05/02 00:07:24;;;;;;;;;;;;;;;;;;4431735;32;20500;-84
2021/05/02 00:09:55;;;;;;;;;;;;;;;;;;4418367;32;19953;-83
2021/05/02 00:12:25;;;;;;;;;;;;;;;;;;4439783;32;20080;-84
2021/05/02 00:14:56;;;;;;;;;;;;;;;;;;4430924;32;20013;-84
2021/05/02 00:20:02;;;;;;;;;;;;;;;;;;4425658;32;20481;-84
2021/05/02 00:22:30;;;;;;;;;;;;;;;;;;4432843;32;19946;-83
2021/05/02 00:25:00;;;;;;;;;;;;;;;;;;4417646;32;19969;-84
2021/05/02 00:27:30;;;;;;;;;;;;;;;;;;4416855;32;20474;-84
2021/05/02 00:30:00;;;;;;;;;;;;;;;;;;4414590;32;19987;-84
2021/05/02 00:32:31;;;;;;;;;;;;;;;;;;4409661;32;19953;-83
2021/05/02 00:35:01;;;;;;;;;;;;;;;;;;4414878;32;19989;-84
2021/05/02 00:37:31;;;;;;;;;;;;;;;;;;4412905;32;20001;-83
2021/05/02 00:40:02;;;;;;;;;;;;;;;;;;4420051;32;19954;-84
2021/05/02 00:42:32;;;;;;;;;;;;;;;;;;4417990;32;20383;-84
2021/05/02 00:45:00;;;;;;;;;;;;;;;;;;4409133;32;19946;-84
2021/05/02 00:47:30;;;;;;;;;;;;;;;;;;4414710;32;20041;-83
2021/05/02 00:50:01;;;;;;;;;;;;;;;;;;4428695;32;19964;-84
2021/05/02 00:52:33;;;;;;;;;;;;;;;;;;4421860;32;20005;-83
2021/05/02 00:55:03;;;;;;;;;;;;;;;;;;4418560;32;19946;-83
2021/05/02 00:57:34;;;;;;;;;;;;;;;;;;4416917;32;20013;-83
2021/05/02 01:00:04;;;;;;;;;;;;;;;;;;4417167;32;19987;-84
2021/05/02 01:02:35;;;;;;;;;;;;;;;;;;4413786;32;20400;-84
2021/05/02 01:05:23;;;;;;;;;;;;;;;;;;4417550;32;20685;-84
2021/05/02 01:07:53;;;;;;;;;;;;;;;;;;4412975;32;19965;-83
2021/05/02 01:10:24;;;;;;;;;;;;;;;;;;4427492;32;20361;-83
2021/05/02 01:12:54;;;;;;;;;;;;;;;;;;4417462;32;20296;-83
2021/05/02 01:15:26;;;;;;;;;;;;;;;;;;4419150;32;19980;-84
2021/05/02 01:17:59;;;;;;;;;;;;;;;;;;4422496;32;20008;-83
2021/05/02 01:20:29;;;;;;;;;;;;;;;;;;4421071;32;20351;-83
2021/05/02 01:22:59;;;;;;;;;;;;;;;;;;4418585;32;20450;-84
2021/05/02 01:25:30;;;;;;;;;;;;;;;;;;4423340;32;19964;-84
2021/05/02 01:27:58;;;;;;;;;;;;;;;;;;4428946;32;19968;-83
2021/05/02 01:30:28;;;;;;;;;;;;;;;;;;4415276;32;20089;-83
2021/05/02 01:32:58;;;;;;;;;;;;;;;;;;4423963;32;19946;-83
2021/05/02 01:35:28;;;;;;;;;;;;;;;;;;4439137;32;20407;-83
2021/05/02 01:37:59;;;;;;;;;;;;;;;;;;4416395;32;20063;-82
2021/05/02 01:40:29;;;;;;;;;;;;;;;;;;4428430;32;20329;-83
2021/05/02 01:43:00;;;;;;;;;;;;;;;;;;4431416;32;19973;-83
2021/05/02 01:45:35;;;;;;;;;;;;;;;;;;4431846;32;19951;-83
2021/05/02 01:48:07;;;;;;;;;;;;;;;;;;4424611;32;20166;-84
2021/05/02 01:50:38;;;;;;;;;;;;;;;;;;4424635;32;20006;-84
2021/05/02 01:53:08;;;;;;;;;;;;;;;;;;4435262;32;19980;-84
2021/05/02 01:55:36;;;;;;;;;;;;;;;;;;4438551;32;20016;-84
2021/05/02 01:58:06;;;;;;;;;;;;;;;;;;4426831;32;19970;-84
2021/05/02 02:00:37;;;;;;;;;;;;;;;;;;4427505;32;20085;-84
2021/05/02 02:03:07;;;;;;;;;;;;;;;;;;4432609;32;19993;-83
2021/05/02 02:05:37;;;;;;;;;;;;;;;;;;4427053;32;20000;-83
2021/05/02 02:08:07;;;;;;;;;;;;;;;;;;4426844;32;20016;-83
2021/05/02 02:10:42;;;;;;;;;;;;;;;;;;4435197;32;19976;-83
2021/05/02 02:13:12;;;;;;;;;;;;;;;;;;4437859;32;19953;-84
2021/05/02 02:15:42;;;;;;;;;;;;;;;;;;4424815;32;19960;-83
2021/05/02 02:18:12;;;;;;;;;;;;;;;;;;4431904;32;19958;-83
2021/05/02 02:20:42;;;;;;;;;;;;;;;;;;4408916;32;19976;-83
2021/05/02 02:23:34;;;;;;;;;;;;;;;;;;4434477;32;19968;-83
2021/05/02 02:26:00;;;;;;;;;;;;;;;;;;4429770;32;19945;-83
2021/05/02 02:28:31;;;;;;;;;;;;;;;;;;4421848;32;19954;-84
2021/05/02 02:31:02;;;;;;;;;;;;;;;;;;4426849;32;19965;-83
2021/05/02 02:33:33;;;;;;;;;;;;;;;;;;4418942;32;19997;-83
2021/05/02 02:36:03;;;;;;;;;;;;;;;;;;4425413;32;20014;-83
2021/05/02 02:38:34;;;;;;;;;;;;;;;;;;4432136;32;20013;-84
2021/05/02 02:41:01;;;;;;;;;;;;;;;;;;4413375;32;19965;-84
2021/05/02 02:43:34;;;;;;;;;;;;;;;;;;4428386;32;19954;-83
2021/05/02 02:46:05;;;;;;;;;;;;;;;;;;4425105;32;20048;-84
2021/05/02 02:48:35;;;;;;;;;;;;;;;;;;4429989;32;20038;-84
2021/05/02 02:51:03;;;;;;;;;;;;;;;;;;4432470;32;19957;-84
2021/05/02 02:53:34;;;;;;;;;;;;;;;;;;4438556;32;20050;-83
2021/05/02 02:56:04;;;;;;;;;;;;;;;;;;4428815;32;19958;-83
2021/05/02 02:58:35;;;;;;;;;;;;;;;;;;4431910;32;19949;-84
2021/05/02 03:01:02;;;;;;;;;;;;;;;;;;4436161;32;19958;-84
2021/05/02 03:03:33;;;;;;;;;;;;;;;;;;4443703;32;19953;-84
2021/05/02 03:06:03;;;;;;;;;;;;;;;;;;4430743;32;19985;-84
2021/05/02 03:08:33;;;;;;;;;;;;;;;;;;4435583;32;19941;-84
2021/05/02 03:11:03;;;;;;;;;;;;;;;;;;4455967;26;20020;-96
2021/05/02 03:13:34;;;;;;;;;;;;;;;;;;4399040;32;20269;-96
2021/05/02 03:16:02;;;;;;;;;;;;;;;;;;4404786;32;19953;-96
2021/05/02 03:18:40;;;;;;;;;;;;;;;;;;4403305;32;20034;-96
2021/05/02 03:21:14;;;;;;;;;;;;;;;;;;4402343;32;20005;-96
2021/05/02 03:23:42;;;;;;;;;;;;;;;;;;4396288;32;20001;-96
2021/05/02 03:26:10;;;;;;;;;;;;;;;;;;4388344;32;19998;-96
2021/05/02 03:28:41;;;;;;;;;;;;;;;;;;4404609;32;19998;-95
2021/05/02 03:31:12;;;;;;;;;;;;;;;;;;4398848;32;19970;-96
2021/05/02 03:33:43;;;;;;;;;;;;;;;;;;4394347;32;19954;-96
2021/05/02 03:36:16;;;;;;;;;;;;;;;;;;4410243;32;20008;-96
2021/05/02 03:38:55;;;;;;;;;;;;;;;;;;4401763;32;19962;-96
2021/05/02 03:41:29;;;;;;;;;;;;;;;;;;4401262;32;20001;-96
2021/05/02 03:44:15;;;;;;;;;;;;;;;;;;4390903;32;20535;-96
2021/05/02 03:46:57;;;;;;;;;;;;;;;;;;4400779;32;20017;-96
2021/05/02 03:49:34;;;;;;;;;;;;;;;;;;4402837;32;20307;-94
2021/05/02 03:52:07;;;;;;;;;;;;;;;;;;4401217;32;19965;-96
2021/05/02 03:54:46;;;;;;;;;;;;;;;;;;4389042;32;19990;-96
2021/05/02 03:57:31;;;;;;;;;;;;;;;;;;4403175;32;19973;-95
2021/05/02 04:00:24;;;;;;;;;;;;;;;;;;4392947;32;19954;-96
2021/05/02 04:03:01;;;;;;;;;;;;;;;;;;4390871;32;20498;-96
2021/05/02 04:05:30;;;;;;;;;;;;;;;;;;4411061;32;19993;-96
2021/05/02 04:08:10;;;;;;;;;;;;;;;;;;4405371;32;20331;-96
2021/05/02 04:11:11;;;;;;;;;;;;;;;;;;4398904;32;19958;-96
2021/05/02 04:14:17;;;;;;;;;;;;;;;;;;4394733;32;19958;-96
2021/05/02 04:17:08;;;;;;;;;;;;;;;;;;4406381;32;19970;-96
2021/05/02 04:19:52;;;;;;;;;;;;;;;;;;4402482;32;19997;-96
2021/05/02 04:22:50;;;;;;;;;;;;;;;;;;4403622;32;19951;-96
2021/05/02 04:25:27;;;;;;;;;;;;;;;;;;4406224;32;19976;-96
2021/05/02 04:28:17;;;;;;;;;;;;;;;;;;4393290;32;19966;-96
2021/05/02 04:31:21;;;;;;;;;;;;;;;;;;4386395;32;19954;-96
2021/05/02 04:34:01;;;;;;;;;;;;;;;;;;4401042;32;19966;-96
2021/05/02 04:37:16;;;;;;;;;;;;;;;;;;4385982;32;19970;-96
2021/05/02 04:39:54;;;;;;;;;;;;;;;;;;4402864;32;19958;-96
2021/05/02 04:42:42;;;;;;;;;;;;;;;;;;4393079;32;19978;-95
2021/05/02 04:45:48;;;;;;;;;;;;;;;;;;4397227;32;19993;-96
2021/05/02 04:48:30;;;;;;;;;;;;;;;;;;4397518;32;20000;-96
2021/05/02 04:50:58;;;;;;;;;;;;;;;;;;4401918;32;19981;-96
2021/05/02 04:53:34;;;;;;;;;;;;;;;;;;4401284;32;20338;-96
2021/05/02 04:56:29;;;;;;;;;;;;;;;;;;4390640;32;20035;-96
2021/05/02 04:59:09;;;;;;;;;;;;;;;;;;4399436;32;19969;-96
2021/05/02 05:02:00;;;;;;;;;;;;;;;;;;4390829;32;19973;-96
2021/05/02 05:04:42;;;;;;;;;;;;;;;;;;4399367;32;20019;-95
2021/05/02 05:07:24;;;;;;;;;;;;;;;;;;4400248;32;19954;-96
2021/05/02 05:09:56;;;;;;;;;;;;;;;;;;4402251;32;19965;-96
2021/05/02 05:12:36;;;;;;;;;;;;;;;;;;4398027;32;19958;-96
2021/05/02 05:15:19;;;;;;;;;;;;;;;;;;4401105;32;19976;-96
2021/05/02 05:18:21;;;;;;;;;;;;;;;;;;4415258;32;20009;-96
2021/05/02 05:21:10;;;;;;;;;;;;;;;;;;4388553;32;20405;-96
2021/05/02 05:24:10;;;;;;;;;;;;;;;;;;4400209;32;20339;-95
2021/05/02 05:27:25;;;;;;;;;;;;;;;;;;4393281;32;20084;-96
2021/05/02 05:30:32;;;;;;;;;;;;;;;;;;4399417;32;19982;-96
2021/05/02 05:33:14;;;;;;;;;;;;;;;;;;4404742;32;19972;-96
2021/05/02 05:35:43;;;;;;;;;;;;;;;;;;4403914;32;19969;-96
2021/05/02 05:41:39;;;;;;;;;;;;;;;;;;4392898;32;20323;-96
2021/05/02 05:44:15;;;;;;;;;;;;;;;;;;4399644;32;19983;-96
2021/05/02 05:46:43;;;;;;;;;;;;;;;;;;4389647;32;19961;-96
2021/05/02 05:49:35;;;;;;;;;;;;;;;;;;4412493;32;20001;-96
2021/05/02 05:52:21;;;;;;;;;;;;;;;;;;4397566;32;20124;-96
2021/05/02 05:54:52;;;;;;;;;;;;;;;;;;4404085;32;19968;-96
2021/05/02 05:57:27;;;;;;;;;;;;;;;;;;4403913;32;19964;-96
2021/05/02 06:00:25;;;;;;;;;;;;;;;;;;4398823;32;20009;-95
2021/05/02 06:03:13;;;;;;;;;;;;;;;;;;4398358;32;19961;-96
2021/05/02 06:06:06;;;;;;;;;;;;;;;;;;4401218;32;19988;-96
2021/05/02 06:08:44;;;;;;;;;;;;;;;;;;4396477;32;20351;-94
2021/05/02 06:11:19;;;;;;;;;;;;;;;;;;4390273;32;19994;-95
2021/05/02 06:13:54;;;;;;;;;;;;;;;;;;4400314;32;19962;-96
2021/05/02 06:16:28;;;;;;;;;;;;;;;;;;4397529;32;19954;-96
2021/05/02 06:19:02;;;;;;;;;;;;;;;;;;4387593;32;20504;-95
2021/05/02 06:21:30;;;;;;;;;;;;;;;;;;4385207;32;20093;-95
2021/05/02 06:24:05;;;;;;;;;;;;;;;;;;4390217;32;20002;-96
2021/05/02 06:26:45;;;;;;;;;;;;;;;;;;4413118;32;19962;-96
2021/05/02 06:29:23;;;;;;;;;;;;;;;;;;4402827;32;20666;-96
2021/05/02 06:31:51;;;;;;;;;;;;;;;;;;4383961;32;20388;-96
2021/05/02 06:34:32;;;;;;;;;;;;;;;;;;4399588;32;20486;-96
2021/05/02 06:37:05;;;;;;;;;;;;;;;;;;4400256;32;20073;-94
2021/05/02 06:39:42;;;;;;;;;;;;;;;;;;4407911;32;19980;-95
2021/05/02 06:42:50;;;;;;;;;;;;;;;;;;4396339;32;20012;-96
2021/05/02 06:45:23;;;;;;;;;;;;;;;;;;4401225;32;19954;-95
2021/05/02 06:47:53;;;;;;;;;;;;;;;;;;4390529;32;19974;-96
2021/05/02 06:50:35;;;;;;;;;;;;;;;;;;4394018;32;19998;-95
2021/05/02 06:53:02;;;;;;;;;;;;;;;;;;4397045;32;20017;-95
2021/05/02 06:55:35;;;;;;;;;;;;;;;;;;4396452;32;20016;-96
2021/05/02 06:58:13;;;;;;;;;;;;;;;;;;;;;
2021/05/02 07:01:04;;;;;;;;;;;;;;;;;;4395455;32;20598;-95
2021/05/02 07:03:49;;;;;;;;;;;;;;;;;;4398413;32;20030;-95
2021/05/02 07:06:46;;;;;;;;;;;;;;;;;;4387322;32;20021;-96
2021/05/02 07:09:52;;;;;;;;;;;;;;;;;;4386406;32;20002;-96
2021/05/02 07:12:28;;;;;;;;;;;;;;;;;;4398003;32;20069;-95
2021/05/02 07:15:07;;;;;;;;;;;;;;;;;;4385166;32;20296;-95
2021/05/02 07:17:59;;;;;;;;;;;;;;;;;;4383378;32;19994;-96
2021/05/02 07:20:54;;;;;;;;;;;;;;;;;;4387657;32;20328;-96
2021/05/02 07:23:44;;;;;;;;;;;;;;;;;;4399791;32;19977;-95
2021/05/02 07:26:24;;;;;;;;;;;;;;;;;;4397949;32;20924;-96
2021/05/02 07:29:07;;;;;;;;;;;;;;;;;;4382859;32;20002;-95
2021/05/02 07:31:54;;;;;;;;;;;;;;;;;;4405055;32;19968;-96
2021/05/02 07:34:36;;;;;;;;;;;;;;;;;;4413543;32;20403;-95
2021/05/02 07:37:31;;;;;;;;;;;;;;;;;;4395576;32;20294;-96
2021/05/02 07:40:12;;;;;;;;;;;;;;;;;;4396705;32;20017;-96
2021/05/02 07:43:23;;;;;;;;;;;;;;;;;;4394784;32;19966;-96
2021/05/02 07:46:11;;;;;;;;;;;;;;;;;;4396057;32;20619;-96
2021/05/02 07:48:45;;;;;;;;;;;;;;;;;;4392267;32;19954;-96
2021/05/02 07:51:20;;;;;;;;;;;;;;;;;;4394588;32;19990;-96
2021/05/02 07:54:02;;;;;;;;;;;;;;;;;;4401460;32;19970;-96
2021/05/02 07:56:38;;;;;;;;;;;;;;;;;;4383902;32;19972;-96
2021/05/02 07:59:30;;;;;;;;;;;;;;;;;;4398774;32;19997;-96
2021/05/02 08:02:05;;;;;;;;;;;;;;;;;;4396812;32;21612;-96
2021/05/02 08:04:49;;;;;;;;;;;;;;;;;;4400803;32;20016;-96
2021/05/02 08:07:24;;;;;;;;;;;;;;;;;;4400001;32;20018;-96
2021/05/02 08:10:29;;;;;;;;;;;;;;;;;;4403105;32;20641;-96
2021/05/02 08:13:00;;;;;;;;;;;;;;;;;;4392189;32;19987;-96
2021/05/02 08:15:33;;;;;;;;;;;;;;;;;;4390102;32;19998;-96
2021/05/02 08:18:31;;;;;;;;;;;;;;;;;;4366077;32;20002;-96
2021/05/02 08:21:14;;;;;;;;;;;;;;;;;;4348984;32;19959;-96
2021/05/02 08:24:06;;;;;;;;;;;;;;;;;;4349150;32;19955;-96
2021/05/02 08:27:09;;;;;;;;;;;;;;;;;;;;;
2021/05/02 08:37:15;;;;;;;;;;;;;;;;;;4357518;32;19947;-96
2021/05/02 08:39:45;;;;;;;;;;;;;;;;;;4358790;32;19968;-96
2021/05/02 08:42:20;;;;;;;;;;;;;;;;;;4393346;32;19982;-96
2021/05/02 08:44:53;;;;;;;;;;;;;;;;;;4391644;32;19992;-94
2021/05/02 08:47:24;;;;;;;;;;;;;;;;;;4394365;32;20437;-95
2021/05/02 08:49:55;;;;;;;;;;;;;;;;;;4384525;32;20986;-94
2021/05/02 08:52:29;;;;;;;;;;;;;;;;;;4399325;32;19993;-95
2021/05/02 08:55:07;;;;;;;;;;;;;;;;;;4404477;32;20288;-95
2021/05/02 08:57:44;;;;;;;;;;;;;;;;;;4405915;32;19962;-95
2021/05/02 09:00:14;;;;;;;;;;;;;;;;;;4404189;32;19977;-95
2021/05/02 09:02:43;;;;;;;;;;;;;;;;;;4405005;32;19985;-95
2021/05/02 09:05:13;;;;;;;;;;;;;;;;;;4394240;32;20002;-95
2021/05/02 09:07:44;;;;;;;;;;;;;;;;;;4408146;32;19998;-94
2021/05/02 09:10:18;;;;;;;;;;;;;;;;;;4398779;32;19943;-95
2021/05/02 09:12:57;;;;;;;;;;;;;;;;;;4406818;32;19958;-96
2021/05/02 09:15:35;;;;;;;;;;;;;;;;;;4394062;32;19946;-96
2021/05/02 09:18:15;;;;;;;;;;;;;;;;;;4405136;32;19950;-96
2021/05/02 09:20:53;;;;;;;;;;;;;;;;;;4399324;32;19994;-96
2021/05/02 09:23:30;;;;;;;;;;;;;;;;;;4403373;32;19992;-95
2021/05/02 09:26:11;;;;;;;;;;;;;;;;;;4399984;32;19960;-96
2021/05/02 09:28:48;;;;;;;;;;;;;;;;;;4403109;32;19949;-96
2021/05/02 09:31:27;;;;;;;;;;;;;;;;;;4406716;32;19957;-95
2021/05/02 09:34:21;;;;;;;;;;;;;;;;;;4406292;32;20376;-96
2021/05/02 09:37:07;;;;;;;;;;;;;;;;;;4405963;32;19956;-95
2021/05/02 09:39:40;;;;;;;;;;;;;;;;;;4405581;32;19957;-95
2021/05/02 09:42:41;;;;;;;;;;;;;;;;;;4399015;32;19982;-96
2021/05/02 09:45:47;;;;;;;;;;;;;;;;;;4400722;32;19945;-96
2021/05/02 09:49:00;;;;;;;;;;;;;;;;;;4368263;32;20612;-96
2021/05/02 09:51:35;;;;;;;;;;;;;;;;;;4372403;32;19966;-96
2021/05/02 09:54:13;;;;;;;;;;;;;;;;;;4359828;32;19970;-96
2021/05/02 09:57:02;;;;;;;;;;;;;;;;;;4370732;32;19979;-96
2021/05/02 09:59:56;;;;;;;;;;;;;;;;;;4351927;32;19965;-96
2021/05/02 10:03:09;;;;;;;;;;;;;;;;;;4377671;32;20057;-96
2021/05/02 10:05:45;;;;;;;;;;;;;;;;;;4387408;32;19950;-96
2021/05/02 10:08:21;;;;;;;;;;;;;;;;;;4403672;32;19969;-96
2021/05/02 10:10:56;;;;;;;;;;;;;;;;;;4420024;32;19975;-96
2021/05/02 10:13:28;;;;;;;;;;;;;;;;;;4405788;32;19983;-96
2021/05/02 10:15:59;;;;;;;;;;;;;;;;;;4393043;32;20005;-94
2021/05/02 10:18:32;;;;;;;;;;;;;;;;;;4403822;32;19961;-95
2021/05/02 10:21:03;;;;;;;;;;;;;;;;;;4399944;32;19993;-94
2021/05/02 10:23:36;;;;;;;;;;;;;;;;;;4394495;32;19998;-96
2021/05/02 10:26:09;;;;;;;;;;;;;;;;;;4403121;32;19970;-96
2021/05/02 10:28:37;;;;;;;;;;;;;;;;;;4405084;32;19976;-96
2021/05/02 10:31:27;;;;;;;;;;;;;;;;;;4405910;32;19988;-96
2021/05/02 10:34:01;;;;;;;;;;;;;;;;;;4412060;32;19950;-96
2021/05/02 10:36:35;;;;;;;;;;;;;;;;;;4411447;32;19947;-96
2021/05/02 10:39:14;;;;;;;;;;;;;;;;;;4411641;32;20278;-96
2021/05/02 10:42:07;;;;;;;;;;;;;;;;;;4411880;32;19954;-96
2021/05/02 10:44:38;;;;;;;;;;;;;;;;;;4408845;32;20113;-96
2021/05/02 10:47:30;;;;;;;;;;;;;;;;;;4400538;32;19946;-93
2021/05/02 10:49:59;;;;;;;;;;;;;;;;;;4395927;32;19977;-96
2021/05/02 10:52:26;;;;;;;;;;;;;;;;;;4401772;32;19954;-94
2021/05/02 10:54:57;;;;;;;;;;;;;;;;;;4401894;32;19947;-94
2021/05/02 10:57:28;;;;;;;;;;;;;;;;;;4404569;32;20327;-96
2021/05/02 11:00:02;;;;;;;;;;;;;;;;;;4405148;32;19982;-96
2021/05/02 11:02:30;;;;;;;;;;;;;;;;;;4388624;32;19974;-96
2021/05/02 11:05:00;;;;;;;;;;;;;;;;;;4384163;32;19990;-95
2021/05/02 11:07:30;;;;;;;;;;;;;;;;;;4387555;32;20032;-95
2021/05/02 11:09:58;;;;;;;;;;;;;;;;;;4399851;32;20075;-96
2021/05/02 11:12:29;;;;;;;;;;;;;;;;;;4390521;32;19954;-95
2021/05/02 11:14:57;;;;;;;;;;;;;;;;;;4396568;32;20338;-95
2021/05/02 11:17:25;;;;;;;;;;;;;;;;;;4392150;32;19946;-95
2021/05/02 11:19:55;;;;;;;;;;;;;;;;;;4394665;32;20005;-96
2021/05/02 11:22:26;;;;;;;;;;;;;;;;;;4395902;32;20295;-96
2021/05/02 11:24:56;;;;;;;;;;;;;;;;;;4399887;32;20043;-95
2021/05/02 11:28:10;;;;;;;;;;;;;;;;;;4402369;32;20611;-95
2021/05/02 11:30:13;;;;;;;;;;;;;;;;;;4392033;32;20366;-96
2021/05/02 11:32:44;;;;;;;;;;;;;;;;;;4395996;32;19988;-95
2021/05/02 11:35:14;;;;;;;;;;;;;;;;;;4401284;32;19991;-94
2021/05/02 11:37:43;;;;;;;;;;;;;;;;;;4399479;32;19960;-96
2021/05/02 11:40:11;;;;;;;;;;;;;;;;;;4385156;32;19984;-96
2021/05/02 11:42:41;;;;;;;;;;;;;;;;;;4399724;32;20034;-95
2021/05/02 11:45:12;;;;;;;;;;;;;;;;;;4398090;32;20014;-96
2021/05/02 11:47:42;;;;;;;;;;;;;;;;;;4385824;32;20394;-96
2021/05/02 11:50:13;;;;;;;;;;;;;;;;;;4401455;32;19950;-96
2021/05/02 11:52:47;;;;;;;;;;;;;;;;;;4413340;32;20319;-96
2021/05/02 11:55:15;;;;;;;;;;;;;;;;;;4403640;32;19985;-96
2021/05/02 11:57:43;;;;;;;;;;;;;;;;;;4400115;32;19946;-96
2021/05/02 12:00:12;;;;;;;;;;;;;;;;;;4398180;32;20033;-95
2021/05/02 12:02:42;;;;;;;;;;;;;;;;;;4389326;32;19998;-96
2021/05/02 12:05:21;;;;;;;;;;;;;;;;;;4411555;32;20249;-96
2021/05/02 12:07:49;;;;;;;;;;;;;;;;;;4401817;32;20274;-96
2021/05/02 12:10:20;;;;;;;;;;;;;;;;;;4406217;32;20368;-96
2021/05/02 12:12:48;;;;;;;;;;;;;;;;;;4397161;32;19986;-96
2021/05/02 12:15:20;;;;;;;;;;;;;;;;;;4392872;32;20009;-96
2021/05/02 12:17:55;;;;;;;;;;;;;;;;;;4412368;32;19973;-96
2021/05/02 12:20:27;;;;;;;;;;;;;;;;;;4416752;32;19959;-96
2021/05/02 12:22:59;;;;;;;;;;;;;;;;;;4418186;32;19999;-96
2021/05/02 12:25:28;;;;;;;;;;;;;;;;;;4396938;32;19983;-96
2021/05/02 12:28:02;;;;;;;;;;;;;;;;;;4388867;32;20603;-96
2021/05/02 12:30:32;;;;;;;;;;;;;;;;;;4396428;32;19986;-96
2021/05/02 12:33:04;;;;;;;;;;;;;;;;;;4387344;32;19993;-95
2021/05/02 12:35:35;;;;;;;;;;;;;;;;;;4399121;32;19958;-96
2021/05/02 12:38:04;;;;;;;;;;;;;;;;;;4394528;32;20009;-96
2021/05/02 12:40:34;;;;;;;;;;;;;;;;;;4410375;32;19981;-96
2021/05/02 12:43:04;;;;;;;;;;;;;;;;;;4399276;32;20413;-96
2021/05/02 12:45:37;;;;;;;;;;;;;;;;;;4389563;32;19993;-96
2021/05/02 12:48:06;;;;;;;;;;;;;;;;;;4400564;32;20038;-96
2021/05/02 12:50:37;;;;;;;;;;;;;;;;;;4391725;32;20024;-95
2021/05/02 12:53:48;;;;;;;;;;;;;;;;;;4395788;32;19978;-95
2021/05/02 12:56:16;;;;;;;;;;;;;;;;;;4398494;32;20007;-95
2021/05/02 12:58:47;;;;;;;;;;;;;;;;;;4396702;32;19980;-96
2021/05/02 13:01:17;;;;;;;;;;;;;;;;;;4383325;32;20016;-95
2021/05/02 13:03:47;;;;;;;;;;;;;;;;;;4393526;32;20270;-96
2021/05/02 13:06:17;;;;;;;;;;;;;;;;;;4383053;32;19962;-96
2021/05/02 13:08:47;;;;;;;;;;;;;;;;;;4384135;32;20002;-96
2021/05/02 13:11:18;;;;;;;;;;;;;;;;;;4398166;32;21828;-95
2021/05/02 13:13:47;;;;;;;;;;;;;;;;;;4398336;32;20394;-96
2021/05/02 13:16:15;;;;;;;;;;;;;;;;;;4384850;32;19998;-96
2021/05/02 13:18:45;;;;;;;;;;;;;;;;;;4397236;32;20268;-96
2021/05/02 13:21:14;;;;;;;;;;;;;;;;;;4394678;32;20342;-95
2021/05/02 13:23:44;;;;;;;;;;;;;;;;;;4396145;32;20462;-95
2021/05/02 13:26:12;;;;;;;;;;;;;;;;;;4384658;32;20317;-96
2021/05/02 13:28:43;;;;;;;;;;;;;;;;;;4402527;32;19984;-96
2021/05/02 13:31:17;;;;;;;;;;;;;;;;;;4391084;32;19982;-96
2021/05/02 13:33:45;;;;;;;;;;;;;;;;;;4397317;32;20232;-95
2021/05/02 13:36:15;;;;;;;;;;;;;;;;;;4394412;32;20051;-96
2021/05/02 13:38:43;;;;;;;;;;;;;;;;;;4384161;32;19993;-96
2021/05/02 13:41:14;;;;;;;;;;;;;;;;;;4396628;32;19986;-95
2021/05/02 13:43:41;;;;;;;;;;;;;;;;;;4397668;32;20021;-95
2021/05/02 13:46:09;;;;;;;;;;;;;;;;;;4399556;32;19997;-94
2021/05/02 13:48:38;;;;;;;;;;;;;;;;;;4395112;32;20450;-96
2021/05/02 13:51:05;;;;;;;;;;;;;;;;;;4384765;32;20349;-96
2021/05/02 13:53:38;;;;;;;;;;;;;;;;;;4394243;32;20000;-96
2021/05/02 13:56:11;;;;;;;;;;;;;;;;;;4396728;32;20490;-95
2021/05/02 13:58:42;;;;;;;;;;;;;;;;;;4397691;32;20028;-94
2021/05/02 14:01:10;;;;;;;;;;;;;;;;;;4397143;32;20009;-96
2021/05/02 14:03:41;;;;;;;;;;;;;;;;;;4390210;32;20514;-95
2021/05/02 14:06:09;;;;;;;;;;;;;;;;;;4408905;32;20027;-96
2021/05/02 14:08:48;;;;;;;;;;;;;;;;;;4387686;32;19957;-94
2021/05/02 14:11:19;;;;;;;;;;;;;;;;;;4410194;32;19982;-95
2021/05/02 14:13:47;;;;;;;;;;;;;;;;;;4395527;32;19987;-95
2021/05/02 14:16:17;;;;;;;;;;;;;;;;;;4396223;32;20005;-96
2021/05/02 14:18:52;;;;;;;;;;;;;;;;;;4388138;32;20020;-95
2021/05/02 14:21:21;;;;;;;;;;;;;;;;;;4407876;32;19983;-95
2021/05/02 14:23:51;;;;;;;;;;;;;;;;;;4384270;32;19978;-95
2021/05/02 14:26:26;;;;;;;;;;;;;;;;;;4383901;32;19963;-95
2021/05/02 14:28:55;;;;;;;;;;;;;;;;;;4399764;32;19981;-95
2021/05/02 14:31:28;;;;;;;;;;;;;;;;;;4398134;32;20038;-95
2021/05/02 14:33:59;;;;;;;;;;;;;;;;;;4384592;32;19958;-95
2021/05/02 14:36:32;;;;;;;;;;;;;;;;;;4390425;32;20008;-95
2021/05/02 14:39:03;;;;;;;;;;;;;;;;;;4385969;32;21271;-94
2021/05/02 14:41:38;;;;;;;;;;;;;;;;;;4393960;32;19954;-96
2021/05/02 14:44:07;;;;;;;;;;;;;;;;;;4403797;32;19972;-95
2021/05/02 14:46:37;;;;;;;;;;;;;;;;;;4402111;32;20267;-95
2021/05/02 14:49:09;;;;;;;;;;;;;;;;;;4389589;32;20051;-96
2021/05/02 14:51:40;;;;;;;;;;;;;;;;;;4403227;32;20280;-95
2021/05/02 14:54:13;;;;;;;;;;;;;;;;;;4391050;32;20005;-96
2021/05/02 14:56:50;;;;;;;;;;;;;;;;;;4407372;32;19968;-95
2021/05/02 14:59:18;;;;;;;;;;;;;;;;;;4409624;32;19953;-96
2021/05/02 15:01:57;;;;;;;;;;;;;;;;;;4405551;32;19954;-96
2021/05/02 15:04:40;;;;;;;;;;;;;;;;;;4405258;32;19958;-95
2021/05/02 15:07:22;;;;;;;;;;;;;;;;;;4398335;32;20266;-95
2021/05/02 15:09:54;;;;;;;;;;;;;;;;;;4410250;32;19973;-96
2021/05/02 15:12:23;;;;;;;;;;;;;;;;;;4406728;32;19993;-96
2021/05/02 15:15:12;;;;;;;;;;;;;;;;;;4406236;32;19947;-96
2021/05/02 15:17:48;;;;;;;;;;;;;;;;;;4399072;32;19975;-95
2021/05/02 15:20:26;;;;;;;;;;;;;;;;;;4420315;32;19938;-96
2021/05/02 15:22:54;;;;;;;;;;;;;;;;;;4408040;32;19987;-96
2021/05/02 15:25:37;;;;;;;;;;;;;;;;;;4387638;32;20046;-96
2021/05/02 15:28:10;;;;;;;;;;;;;;;;;;4406766;32;20353;-96
2021/05/02 15:30:45;;;;;;;;;;;;;;;;;;4405714;32;19998;-96
2021/05/02 15:33:23;;;;;;;;;;;;;;;;;;4400962;32;19958;-96
2021/05/02 15:35:54;;;;;;;;;;;;;;;;;;4418675;32;20038;-96
2021/05/02 15:38:27;;;;;;;;;;;;;;;;;;4398207;32;19943;-95
2021/05/02 15:40:58;;;;;;;;;;;;;;;;;;4396888;32;20274;-95
2021/05/02 15:43:31;;;;;;;;;;;;;;;;;;4398068;32;19960;-95
2021/05/02 15:46:04;;;;;;;;;;;;;;;;;;4406105;32;19947;-96
2021/05/02 15:48:32;;;;;;;;;;;;;;;;;;4407600;32;20060;-95
2021/05/02 15:51:02;;;;;;;;;;;;;;;;;;4399056;32;20343;-96
2021/05/02 15:53:37;;;;;;;;;;;;;;;;;;4406572;32;21740;-95
2021/05/02 15:56:08;;;;;;;;;;;;;;;;;;4399809;32;19974;-95
2021/05/02 15:58:39;;;;;;;;;;;;;;;;;;4405118;32;19968;-95
2021/05/02 16:01:19;;;;;;;;;;;;;;;;;;4391314;32;19955;-96
2021/05/02 16:03:50;;;;;;;;;;;;;;;;;;4390588;32;19958;-96
2021/05/02 16:06:22;;;;;;;;;;;;;;;;;;4402342;32;19999;-94
2021/05/02 16:09:03;;;;;;;;;;;;;;;;;;4413177;32;19950;-94
2021/05/02 16:11:31;;;;;;;;;;;;;;;;;;4402117;32;19970;-96
2021/05/02 16:13:59;;;;;;;;;;;;;;;;;;4399415;32;19978;-95
2021/05/02 16:16:31;;;;;;;;;;;;;;;;;;4399828;32;20029;-94
2021/05/02 16:18:59;;;;;;;;;;;;;;;;;;4397641;32;19962;-96
2021/05/02 16:21:32;;;;;;;;;;;;;;;;;;4387359;32;19950;-95
2021/05/02 16:24:02;;;;;;;;;;;;;;;;;;4391286;32;20432;-95
2021/05/02 16:26:42;;;;;;;;;;;;;;;;;;4409300;32;19968;-95
2021/05/02 16:29:12;;;;;;;;;;;;;;;;;;4392159;32;19997;-95
2021/05/02 16:31:42;;;;;;;;;;;;;;;;;;4388606;32;19953;-94
2021/05/02 16:34:16;;;;;;;;;;;;;;;;;;4400466;32;19945;-93
2021/05/02 16:36:50;;;;;;;;;;;;;;;;;;4396763;32;19954;-95
2021/05/02 16:39:20;;;;;;;;;;;;;;;;;;4392183;32;20355;-95
2021/05/02 16:41:55;;;;;;;;;;;;;;;;;;4392389;32;20058;-94
2021/05/02 16:44:27;;;;;;;;;;;;;;;;;;4386933;32;20367;-95
2021/05/02 16:46:59;;;;;;;;;;;;;;;;;;4400700;32;19953;-96
2021/05/02 16:49:30;;;;;;;;;;;;;;;;;;4383936;32;20053;-94
2021/05/02 16:51:58;;;;;;;;;;;;;;;;;;4390960;32;20001;-96
2021/05/02 16:54:28;;;;;;;;;;;;;;;;;;4396846;32;20322;-95
2021/05/02 16:56:59;;;;;;;;;;;;;;;;;;4399622;32;20310;-95
2021/05/02 16:59:29;;;;;;;;;;;;;;;;;;4384806;32;20025;-95
2021/05/02 17:01:58;;;;;;;;;;;;;;;;;;4403510;32;19962;-95
2021/05/02 17:04:30;;;;;;;;;;;;;;;;;;4401053;32;19977;-95
2021/05/02 17:06:58;;;;;;;;;;;;;;;;;;4398338;32;20266;-96
2021/05/02 17:09:29;;;;;;;;;;;;;;;;;;4385101;32;20406;-96
2021/05/02 17:12:09;;;;;;;;;;;;;;;;;;4398410;32;19970;-94
2021/05/02 17:14:41;;;;;;;;;;;;;;;;;;4386406;32;20058;-93
2021/05/02 17:17:11;;;;;;;;;;;;;;;;;;4375374;32;19947;-95
2021/05/02 17:19:44;;;;;;;;;;;;;;;;;;4375476;32;19951;-93
2021/05/02 17:22:17;;;;;;;;;;;;;;;;;;4407854;32;20454;-95
2021/05/02 17:24:53;;;;;;;;;;;;;;;;;;4382011;32;19997;-96
2021/05/02 17:27:21;;;;;;;;;;;;;;;;;;4385157;32;19958;-94
2021/05/02 17:30:14;;;;;;;;;;;;;;;;;;4382503;32;19950;-96
2021/05/02 17:32:43;;;;;;;;;;;;;;;;;;4371595;32;19970;-95
2021/05/02 17:35:14;;;;;;;;;;;;;;;;;;4372576;32;20297;-96
2021/05/02 17:38:03;;;;;;;;;;;;;;;;;;4406024;32;20004;-95
2021/05/02 17:40:42;;;;;;;;;;;;;;;;;;4388386;32;19950;-95
2021/05/02 17:43:40;;;;;;;;;;;;;;;;;;4381267;32;19986;-95
2021/05/02 17:46:31;;;;;;;;;;;;;;;;;;4379680;32;19999;-94
2021/05/02 17:49:03;;;;;;;;;;;;;;;;;;4377291;32;19961;-95
2021/05/02 17:51:50;;;;;;;;;;;;;;;;;;4387193;32;19943;-96
2021/05/02 17:54:40;;;;;;;;;;;;;;;;;;4404279;32;19973;-95
2021/05/02 17:57:31;;;;;;;;;;;;;;;;;;4369969;32;20001;-95
2021/05/02 18:00:06;;;;;;;;;;;;;;;;;;4390889;32;19989;-95